Portada
METAR-TAF:

METAR-TAF

Aeroports :

Jubail, Aràbia Saudita

latitud: 27-02-20N, longitud: 49-24-18E, altitud: 8 m

Observació

L'informe es va fer fa 1 hora i 2 minuts, a les 22:00 UTC
Vent 7 kt del Nord-Oest
Temperatura 15°C
Humitat 100%
Pressió 1016 hPa
Visibilitat: 5000 m

METAR: OEJB 012200Z AUTO 31007KT 5000 NCD 15/15 Q1016 NOSIG

Hora: 02:02 (23:02 UTC)


TAF: manca

Observacions i pronòstics meteorològics de més de 4000 aeroports (METAR i TAF).

Les estacions disponibles són els punts grocs i vermells al mapa.

Posi el ratolí al punt desitjat per veure el nom de l'estació.

Feu clic per veure les observacions i els pronòstics meteorològics.

Per canviar el mapa: feu clic els botons verds amb una creu de color negre per apropar; al botó verd amb un guió per allunyar la imatge; o en les fletxes verdes per a mapes adjacents.


METAR-TAF: